createdAt,value
2022-11-05T00:00:35.497Z,63.41
2022-11-05T00:03:20.281Z,62.54
2022-11-05T00:06:08.266Z,62.98
2022-11-05T00:08:53.920Z,62.60
2022-11-05T00:11:40.361Z,62.45
2022-11-05T00:14:25.777Z,62.66
2022-11-05T00:16:52.125Z,62.54
2022-11-05T00:19:18.518Z,62.82
2022-11-05T00:22:03.503Z,62.82
2022-11-05T00:24:48.178Z,62.80
2022-11-05T00:27:14.643Z,62.79
2022-11-05T00:29:40.988Z,62.82
2022-11-05T00:32:07.385Z,62.81
2022-11-05T00:34:33.699Z,62.64
2022-11-05T00:37:00.129Z,62.75
2022-11-05T00:39:26.444Z,62.46
2022-11-05T00:42:11.111Z,62.61
2022-11-05T00:44:55.858Z,62.62
2022-11-05T00:47:40.518Z,62.76
2022-11-05T00:50:07.105Z,62.71
2022-11-05T00:52:52.042Z,63.01
2022-11-05T00:55:18.389Z,62.81
2022-11-05T00:57:44.688Z,62.93
2022-11-05T01:00:11.879Z,62.75
2022-11-05T01:02:38.334Z,63.11
2022-11-05T01:05:05.033Z,63.27
2022-11-05T01:07:31.408Z,62.95
2022-11-05T01:09:57.692Z,63.15
2022-11-05T01:12:23.988Z,63.45
2022-11-05T01:14:50.272Z,63.49
2022-11-05T01:17:16.891Z,63.45
2022-11-05T01:19:43.276Z,63.51
2022-11-05T01:22:09.615Z,63.62
2022-11-05T01:24:35.932Z,63.87
2022-11-05T01:27:02.229Z,63.47
2022-11-05T01:29:28.533Z,63.46
2022-11-05T01:31:54.844Z,63.56
2022-11-05T01:34:21.193Z,63.56
2022-11-05T01:36:47.507Z,63.41
2022-11-05T01:39:13.974Z,63.61
2022-11-05T01:41:40.282Z,63.42
2022-11-05T01:44:46.937Z,64.82
2022-11-05T01:47:36.333Z,64.53
2022-11-05T01:50:21.799Z,63.79
2022-11-05T01:52:52.338Z,63.60
2022-11-05T01:55:23.962Z,63.81
2022-11-05T01:57:53.718Z,63.59
2022-11-05T02:00:20.086Z,63.28
2022-11-05T02:02:47.473Z,63.44
2022-11-05T02:05:14.961Z,63.65
2022-11-05T02:07:44.888Z,63.94
2022-11-05T02:10:14.057Z,63.81
2022-11-05T02:12:43.797Z,63.92
2022-11-05T02:15:15.827Z,64.19
2022-11-05T02:17:53.957Z,64.33
2022-11-05T02:20:52.151Z,64.48
2022-11-05T02:23:33.231Z,64.38
2022-11-05T02:26:18.848Z,64.21
2022-11-05T02:29:09.645Z,64.20
2022-11-05T02:32:20.680Z,64.25
2022-11-05T02:35:00.010Z,64.23
2022-11-05T02:37:45.631Z,63.96
2022-11-05T02:40:27.417Z,64.27
2022-11-05T02:43:15.209Z,64.22
2022-11-05T02:46:02.736Z,64.59
2022-11-05T02:48:55.557Z,64.42
2022-11-05T02:51:32.246Z,64.04
2022-11-05T02:54:05.418Z,64.04
2022-11-05T02:56:39.421Z,64.42
2022-11-05T02:59:05.799Z,63.56
2022-11-05T03:01:32.300Z,63.42
2022-11-05T03:04:03.484Z,63.79
2022-11-05T03:06:54.524Z,64.39
2022-11-05T03:09:48.253Z,64.38
2022-11-05T03:12:26.948Z,64.42
2022-11-05T03:15:05.406Z,64.06
2022-11-05T03:17:58.002Z,64.60
2022-11-05T03:21:02.955Z,64.51
2022-11-05T03:23:38.289Z,64.12
2022-11-05T03:26:12.446Z,63.83
2022-11-05T03:28:43.121Z,64.01
2022-11-05T03:31:12.602Z,63.85
2022-11-05T03:33:41.536Z,63.78
2022-11-05T03:36:14.075Z,64.08
2022-11-05T03:38:46.665Z,64.10
2022-11-05T03:41:15.817Z,63.67
2022-11-05T03:43:47.427Z,63.98
2022-11-05T03:46:23.085Z,64.53
2022-11-05T03:48:54.392Z,63.81
2022-11-05T03:51:28.581Z,64.25
2022-11-05T03:54:00.677Z,64.34
2022-11-05T03:56:37.304Z,64.23
2022-11-05T03:59:06.600Z,63.61
2022-11-05T04:01:33.659Z,63.45
2022-11-05T04:04:00.214Z,63.55
2022-11-05T04:06:45.335Z,63.51
2022-11-05T04:09:30.361Z,63.46
2022-11-05T04:12:15.167Z,63.37
2022-11-05T04:14:41.638Z,63.53
2022-11-05T04:17:10.877Z,63.50
2022-11-05T04:19:58.719Z,63.85
2022-11-05T04:22:46.292Z,63.71
2022-11-05T04:25:14.306Z,63.65
2022-11-05T04:27:41.074Z,63.63
2022-11-05T04:30:20.796Z,63.76
2022-11-05T04:33:06.214Z,64.33
2022-11-05T04:35:46.725Z,64.12
2022-11-05T04:38:18.357Z,63.98
2022-11-05T04:40:46.169Z,63.93
2022-11-05T04:43:15.466Z,63.68
2022-11-05T04:45:42.675Z,63.55
2022-11-05T04:48:09.444Z,63.44
2022-11-05T04:50:36.235Z,63.20
2022-11-05T04:53:02.908Z,63.47
2022-11-05T04:55:29.487Z,63.47
2022-11-05T04:57:56.419Z,63.08
2022-11-05T05:00:23.875Z,63.26
2022-11-05T05:02:50.752Z,63.21
2022-11-05T05:05:17.532Z,63.48
2022-11-05T05:07:44.225Z,63.46
2022-11-05T05:10:11.275Z,63.54
2022-11-05T05:12:37.871Z,63.63
2022-11-05T05:15:05.023Z,63.63
2022-11-05T05:17:31.709Z,63.70
2022-11-05T05:20:16.772Z,63.73
2022-11-05T05:22:43.470Z,63.79
2022-11-05T05:25:10.039Z,63.66
2022-11-05T05:27:36.559Z,63.61
2022-11-05T05:30:03.459Z,63.24
2022-11-05T05:32:30.087Z,63.38
2022-11-05T05:34:56.718Z,63.59
2022-11-05T05:37:23.167Z,63.34
2022-11-05T05:39:49.810Z,63.25
2022-11-05T05:42:16.438Z,63.19
2022-11-05T05:44:43.035Z,63.50
2022-11-05T05:47:09.563Z,63.27
2022-11-05T05:49:36.109Z,63.28
2022-11-05T05:52:02.630Z,63.18
2022-11-05T05:54:32.661Z,63.46
2022-11-05T05:57:00.767Z,63.42
2022-11-05T05:59:27.461Z,63.55
2022-11-05T06:01:54.123Z,63.84
2022-11-05T06:04:20.709Z,63.72
2022-11-05T06:06:47.306Z,63.58
2022-11-05T06:09:14.645Z,63.57
2022-11-05T06:11:41.712Z,63.53
2022-11-05T06:14:12.491Z,64.27
2022-11-05T06:16:39.703Z,63.90
2022-11-05T06:19:07.181Z,63.58
2022-11-05T06:21:34.055Z,64.17
2022-11-05T06:24:02.334Z,64.29
2022-11-05T06:26:29.310Z,64.14
2022-11-05T06:28:56.034Z,64.80
2022-11-05T06:31:22.670Z,64.53
2022-11-05T06:33:49.209Z,64.82
2022-11-05T06:36:17.617Z,65.22
2022-11-05T06:38:44.400Z,64.83
2022-11-05T06:41:11.091Z,65.29
2022-11-05T06:43:37.845Z,65.30
2022-11-05T06:46:04.985Z,65.32
2022-11-05T06:48:31.650Z,65.47
2022-11-05T06:50:58.483Z,65.41
2022-11-05T06:53:25.601Z,65.66
2022-11-05T06:55:52.207Z,65.55
2022-11-05T06:58:18.929Z,65.47
2022-11-05T07:00:45.740Z,65.83
2022-11-05T07:03:13.108Z,65.99
2022-11-05T07:05:46.322Z,66.49
2022-11-05T07:08:12.872Z,65.97
2022-11-05T07:10:39.517Z,66.31
2022-11-05T07:13:08.422Z,66.15
2022-11-05T07:15:36.515Z,66.31
2022-11-05T07:18:04.487Z,66.55
2022-11-05T07:20:34.124Z,66.64
2022-11-05T07:23:02.245Z,66.63
2022-11-05T07:25:29.892Z,67.27
2022-11-05T07:27:56.584Z,67.07
2022-11-05T07:30:23.149Z,67.04
2022-11-05T07:32:49.673Z,67.42
2022-11-05T07:35:16.292Z,67.33
2022-11-05T07:37:47.874Z,67.04
2022-11-05T07:40:15.717Z,67.13
2022-11-05T07:42:47.164Z,67.87
2022-11-05T07:45:14.008Z,66.97
2022-11-05T07:47:47.807Z,68.13
2022-11-05T07:50:15.667Z,67.34
2022-11-05T07:52:42.464Z,67.44
2022-11-05T07:55:09.542Z,67.34
2022-11-05T07:57:46.942Z,68.46
2022-11-05T08:00:16.727Z,67.48
2022-11-05T08:02:43.784Z,67.49
2022-11-05T08:05:10.595Z,67.60
2022-11-05T08:07:37.201Z,67.48
2022-11-05T08:10:04.229Z,67.83
2022-11-05T08:12:32.414Z,68.21
2022-11-05T08:14:59.104Z,67.79
2022-11-05T08:17:25.742Z,67.69
2022-11-05T08:19:52.339Z,67.71
2022-11-05T08:22:18.792Z,68.04
2022-11-05T08:24:45.343Z,67.80
2022-11-05T08:27:11.852Z,67.94
2022-11-05T08:29:38.440Z,67.92
2022-11-05T08:32:05.116Z,68.12
2022-11-05T08:34:31.647Z,67.93
2022-11-05T08:37:00.815Z,68.42
2022-11-05T08:39:27.338Z,68.21
2022-11-05T08:41:54.062Z,68.00
2022-11-05T08:44:20.787Z,68.24
2022-11-05T08:46:47.391Z,68.33
2022-11-05T08:49:14.175Z,68.32
2022-11-05T08:51:40.671Z,68.16
2022-11-05T08:54:07.380Z,68.19
2022-11-05T08:56:33.968Z,68.33
2022-11-05T08:59:00.886Z,68.26
2022-11-05T09:01:27.585Z,67.87
2022-11-05T09:03:54.206Z,68.17
2022-11-05T09:06:20.756Z,68.05
2022-11-05T09:08:47.465Z,68.04
2022-11-05T09:11:13.971Z,68.19
2022-11-05T09:13:40.630Z,68.29
2022-11-05T09:16:13.604Z,68.00
2022-11-05T09:18:40.139Z,69.20
2022-11-05T09:21:06.716Z,67.59
2022-11-05T09:23:33.235Z,67.76
2022-11-05T09:25:59.821Z,68.08
2022-11-05T09:28:26.361Z,67.87
2022-11-05T09:30:53.234Z,68.38
2022-11-05T09:33:22.894Z,68.58
2022-11-05T09:35:49.661Z,68.12
2022-11-05T09:38:16.245Z,68.30
2022-11-05T09:41:06.065Z,68.93
2022-11-05T09:43:51.716Z,68.96
2022-11-05T09:46:23.321Z,68.42
2022-11-05T09:48:54.843Z,68.83
2022-11-05T09:53:49.833Z,68.44
2022-11-05T09:56:29.186Z,69.61
2022-11-05T09:59:03.003Z,68.97
2022-11-05T10:01:34.093Z,68.79
2022-11-05T10:04:07.687Z,68.70
2022-11-05T10:06:34.584Z,68.60
2022-11-05T10:09:11.066Z,68.96
2022-11-05T10:11:44.576Z,68.79
2022-11-05T10:14:20.861Z,69.19
2022-11-05T10:17:00.137Z,69.09
2022-11-05T10:19:50.195Z,69.16
2022-11-05T10:22:18.961Z,68.80
2022-11-05T10:24:50.669Z,68.62
2022-11-05T10:27:23.251Z,68.70
2022-11-05T10:29:50.501Z,68.48
2022-11-05T10:32:33.320Z,68.56
2022-11-05T10:35:02.641Z,68.39
2022-11-05T10:37:30.515Z,68.40
2022-11-05T10:39:57.431Z,68.20
2022-11-05T10:42:36.079Z,67.86
2022-11-05T10:45:18.698Z,67.77
2022-11-05T10:48:03.535Z,67.91
2022-11-05T10:50:30.857Z,68.93
2022-11-05T10:53:20.866Z,68.46
2022-11-05T10:55:50.441Z,69.26
2022-11-05T10:58:16.903Z,68.24
2022-11-05T11:00:45.780Z,67.24
2022-11-05T11:03:33.499Z,65.24
2022-11-05T11:06:37.660Z,65.29
2022-11-05T11:09:08.035Z,66.04
2022-11-05T11:11:40.503Z,66.71
2022-11-05T11:14:20.869Z,65.38
2022-11-05T11:16:51.149Z,68.73
2022-11-05T11:19:29.474Z,65.23
2022-11-05T11:22:05.173Z,63.41
2022-11-05T11:24:45.146Z,62.60
2022-11-05T11:27:16.582Z,63.52
2022-11-05T11:29:49.591Z,61.80
2022-11-05T11:32:19.703Z,59.76
2022-11-05T11:34:51.715Z,57.80
2022-11-05T11:37:27.419Z,55.08
2022-11-05T11:40:04.218Z,52.05
2022-11-05T11:42:37.665Z,50.48
2022-11-05T11:45:14.366Z,51.77
2022-11-05T11:47:44.485Z,50.45
2022-11-05T11:50:43.002Z,49.92
2022-11-05T11:53:21.659Z,47.43
2022-11-05T11:56:03.556Z,46.55
2022-11-05T11:59:00.925Z,45.62
2022-11-05T12:01:30.530Z,46.68
2022-11-05T12:04:13.946Z,47.88
2022-11-05T12:06:51.212Z,45.01
2022-11-05T12:09:21.920Z,44.97
2022-11-05T12:12:02.892Z,45.09
2022-11-05T12:15:00.487Z,44.89
2022-11-05T12:17:33.085Z,44.84
2022-11-05T12:20:14.865Z,45.51
2022-11-05T12:22:59.587Z,44.92
2022-11-05T12:25:38.108Z,44.87
2022-11-05T12:28:28.614Z,44.47
2022-11-05T12:31:07.073Z,45.47
2022-11-05T12:33:57.605Z,44.62
2022-11-05T12:37:03.853Z,44.99
2022-11-05T12:39:57.953Z,45.38
2022-11-05T12:42:30.408Z,44.20
2022-11-05T12:45:04.460Z,43.86
2022-11-05T12:47:42.937Z,44.06
2022-11-05T12:50:24.430Z,45.31
2022-11-05T12:53:01.853Z,45.82
2022-11-05T12:55:36.893Z,46.26
2022-11-05T12:58:12.345Z,46.50
2022-11-05T13:00:42.123Z,47.31
2022-11-05T13:03:25.588Z,47.32
2022-11-05T13:06:10.322Z,47.69
2022-11-05T13:08:44.566Z,47.82
2022-11-05T13:11:27.470Z,48.15
2022-11-05T13:14:02.526Z,48.56
2022-11-05T13:16:50.710Z,48.06
2022-11-05T13:19:30.041Z,48.75
2022-11-05T13:22:25.506Z,48.36
2022-11-05T13:25:04.616Z,48.67
2022-11-05T13:27:48.859Z,48.94
2022-11-05T13:30:20.104Z,49.00
2022-11-05T13:32:56.671Z,49.22
2022-11-05T13:35:29.786Z,49.46
2022-11-05T13:38:25.723Z,49.68
2022-11-05T13:40:55.355Z,49.85
2022-11-05T13:43:39.608Z,50.37
2022-11-05T13:46:41.474Z,50.35
2022-11-05T13:49:46.143Z,50.86
2022-11-05T13:52:18.335Z,50.86
2022-11-05T13:55:11.096Z,50.91
2022-11-05T13:57:40.522Z,51.05
2022-11-05T14:00:15.829Z,51.18
2022-11-05T14:02:48.059Z,50.94
2022-11-05T14:05:34.596Z,51.42
2022-11-05T14:08:09.125Z,51.26
2022-11-05T14:10:37.120Z,51.36
2022-11-05T14:13:16.101Z,51.90
2022-11-05T14:15:58.313Z,52.08
2022-11-05T14:18:24.748Z,52.37
2022-11-05T14:21:00.648Z,52.33
2022-11-05T14:23:28.490Z,52.62
2022-11-05T14:25:59.622Z,52.56
2022-11-05T14:28:35.278Z,52.04
2022-11-05T14:31:20.153Z,52.32
2022-11-05T14:34:20.367Z,52.14
2022-11-05T14:37:23.497Z,52.10
2022-11-05T14:39:50.908Z,51.81
2022-11-05T14:42:30.457Z,51.53
2022-11-05T14:44:56.997Z,51.47
2022-11-05T14:47:26.266Z,51.47
2022-11-05T14:50:01.620Z,51.09
2022-11-05T14:52:28.793Z,51.11
2022-11-05T14:54:57.321Z,50.62
2022-11-05T14:57:42.184Z,50.79
2022-11-05T15:00:30.348Z,50.71
2022-11-05T15:03:29.098Z,51.08
2022-11-05T15:06:23.595Z,51.27
2022-11-05T15:08:50.125Z,51.23
2022-11-05T15:11:40.803Z,50.92
2022-11-05T15:14:31.920Z,51.13
2022-11-05T15:17:19.777Z,51.15
2022-11-05T15:19:47.659Z,51.14
2022-11-05T15:22:30.154Z,51.32
2022-11-05T15:24:56.896Z,51.75
2022-11-05T15:27:23.387Z,51.77
2022-11-05T15:29:50.125Z,51.62
2022-11-05T15:32:18.658Z,51.66
2022-11-05T15:34:53.867Z,52.00
2022-11-05T15:37:26.283Z,52.03
2022-11-05T15:39:55.143Z,52.04
2022-11-05T15:42:23.803Z,51.92
2022-11-05T15:44:54.474Z,52.07
2022-11-05T15:47:31.011Z,51.98
2022-11-05T15:50:14.912Z,52.28
2022-11-05T15:52:53.829Z,52.24
2022-11-05T15:55:25.791Z,52.25
2022-11-05T15:57:59.959Z,52.29
2022-11-05T16:00:29.426Z,52.65
2022-11-05T16:03:01.106Z,52.47
2022-11-05T16:05:31.229Z,52.44
2022-11-05T16:07:59.654Z,52.58
2022-11-05T16:10:31.664Z,52.78
2022-11-05T16:13:36.839Z,53.01
2022-11-05T16:16:14.325Z,52.84
2022-11-05T16:18:42.301Z,52.91
2022-11-05T16:21:18.604Z,52.89
2022-11-05T16:23:45.193Z,53.02
2022-11-05T16:27:00.704Z,53.22
2022-11-05T16:29:22.846Z,52.92
2022-11-05T16:31:55.139Z,53.27
2022-11-05T16:34:37.756Z,53.18
2022-11-05T16:37:06.465Z,53.24
2022-11-05T16:39:33.629Z,53.32
2022-11-05T16:42:00.219Z,53.36
2022-11-05T16:44:26.812Z,53.27
2022-11-05T16:46:53.554Z,53.49
2022-11-05T16:49:20.379Z,53.77
2022-11-05T16:51:46.814Z,53.42
2022-11-05T16:54:13.321Z,53.56
2022-11-05T16:56:42.217Z,53.55
2022-11-05T16:59:12.779Z,53.79
2022-11-05T17:01:42.075Z,53.85
2022-11-05T17:04:11.647Z,53.91
2022-11-05T17:06:38.344Z,53.96
2022-11-05T17:09:04.955Z,54.13
2022-11-05T17:11:31.488Z,54.25
2022-11-05T17:13:58.008Z,54.23
2022-11-05T17:16:26.263Z,54.21
2022-11-05T17:18:52.763Z,54.33
2022-11-05T17:21:19.299Z,54.08
2022-11-05T17:23:45.888Z,54.38
2022-11-05T17:26:12.955Z,54.51
2022-11-05T17:28:40.622Z,54.48
2022-11-05T17:31:11.350Z,54.72
2022-11-05T17:33:38.058Z,54.49
2022-11-05T17:36:09.542Z,54.82
2022-11-05T17:38:36.088Z,54.67
2022-11-05T17:41:10.507Z,54.91
2022-11-05T17:43:37.042Z,54.72
2022-11-05T17:46:10.886Z,54.74
2022-11-05T17:48:39.028Z,54.80
2022-11-05T17:51:10.028Z,55.05
2022-11-05T17:53:36.918Z,55.07
2022-11-05T17:56:11.270Z,55.21
2022-11-05T17:58:38.473Z,55.06
2022-11-05T18:01:06.035Z,55.24
2022-11-05T18:03:32.975Z,55.08
2022-11-05T18:06:06.398Z,55.50
2022-11-05T18:08:33.645Z,55.37
2022-11-05T18:11:00.201Z,55.24
2022-11-05T18:13:26.740Z,55.20
2022-11-05T18:15:54.271Z,55.30
2022-11-05T18:18:21.530Z,55.32
2022-11-05T18:20:48.138Z,55.41
2022-11-05T18:23:15.121Z,55.53
2022-11-05T18:25:41.969Z,55.38
2022-11-05T18:28:08.739Z,55.42
2022-11-05T18:30:38.321Z,55.58
2022-11-05T18:33:04.842Z,55.41
2022-11-05T18:35:31.358Z,55.54
2022-11-05T18:37:58.022Z,55.53
2022-11-05T18:40:24.441Z,55.47
2022-11-05T18:42:51.004Z,55.58
2022-11-05T18:45:17.490Z,55.54
2022-11-05T18:47:44.102Z,55.55
2022-11-05T18:50:10.700Z,55.66
2022-11-05T18:52:37.189Z,55.68
2022-11-05T18:55:03.861Z,55.85
2022-11-05T18:57:33.563Z,55.92
2022-11-05T19:00:00.513Z,55.78
2022-11-05T19:02:27.146Z,55.71
2022-11-05T19:05:27.341Z,55.89
2022-11-05T19:07:40.624Z,55.67
2022-11-05T19:10:08.444Z,55.60
2022-11-05T19:12:35.200Z,55.83
2022-11-05T19:15:02.984Z,56.04
2022-11-05T19:17:30.756Z,55.73
2022-11-05T19:19:57.271Z,56.07
2022-11-05T19:22:24.013Z,56.10
2022-11-05T19:24:50.555Z,56.20
2022-11-05T19:27:17.354Z,56.15
2022-11-05T19:29:43.830Z,56.23
2022-11-05T19:32:10.678Z,56.20
2022-11-05T19:34:37.592Z,56.17
2022-11-05T19:37:07.205Z,56.13
2022-11-05T19:39:35.269Z,56.28
2022-11-05T19:42:03.677Z,56.22
2022-11-05T19:44:30.723Z,56.21
2022-11-05T19:46:57.262Z,56.30
2022-11-05T19:49:23.932Z,56.31
2022-11-05T19:51:50.992Z,56.44
2022-11-05T19:54:17.694Z,56.36
2022-11-05T19:56:44.264Z,56.34
2022-11-05T19:59:11.631Z,56.50
2022-11-05T20:01:38.726Z,56.34
2022-11-05T20:04:05.803Z,56.52
2022-11-05T20:06:36.799Z,56.57
2022-11-05T20:09:22.017Z,56.63
2022-11-05T20:11:49.841Z,56.48
2022-11-05T20:14:16.417Z,56.53
2022-11-05T20:16:42.982Z,56.67
2022-11-05T20:19:12.837Z,56.84
2022-11-05T20:21:39.742Z,56.99
2022-11-05T20:24:06.830Z,56.91
2022-11-05T20:26:33.963Z,57.05
2022-11-05T20:29:00.911Z,57.29
2022-11-05T20:31:27.404Z,57.05
2022-11-05T20:33:54.440Z,57.08
2022-11-05T20:36:22.940Z,57.11
2022-11-05T20:38:51.445Z,57.13
2022-11-05T20:41:18.676Z,57.03
2022-11-05T20:43:46.677Z,56.92
2022-11-05T20:46:16.374Z,57.05
2022-11-05T20:48:43.893Z,56.96
2022-11-05T20:51:16.360Z,57.04
2022-11-05T20:53:43.699Z,57.04
2022-11-05T20:56:22.731Z,57.26
2022-11-05T20:58:50.322Z,56.88
2022-11-05T21:01:18.223Z,56.92
2022-11-05T21:03:46.355Z,56.95
2022-11-05T21:06:13.772Z,56.95
2022-11-05T21:08:40.644Z,56.90
2022-11-05T21:11:07.898Z,56.94
2022-11-05T21:13:34.880Z,57.08
2022-11-05T21:16:01.723Z,56.99
2022-11-05T21:18:30.995Z,57.14
2022-11-05T21:20:59.748Z,57.11
2022-11-05T21:23:27.460Z,57.42
2022-11-05T21:25:54.361Z,57.18
2022-11-05T21:28:20.973Z,57.27
2022-11-05T21:30:48.950Z,57.09
2022-11-05T21:33:16.996Z,57.39
2022-11-05T21:35:45.976Z,57.31
2022-11-05T21:38:15.115Z,57.50
2022-11-05T21:40:42.416Z,57.47
2022-11-05T21:43:09.506Z,57.51
2022-11-05T21:45:41.992Z,57.56
2022-11-05T21:48:09.518Z,57.47
2022-11-05T21:50:57.668Z,57.68
2022-11-05T21:53:42.836Z,57.53
2022-11-05T21:56:40.383Z,57.93
2022-11-05T21:59:25.584Z,57.55
2022-11-05T22:02:01.212Z,57.43
2022-11-05T22:04:34.650Z,57.92
2022-11-05T22:07:01.329Z,58.05
2022-11-05T22:09:28.608Z,57.46
2022-11-05T22:11:55.576Z,57.56
2022-11-05T22:14:22.782Z,57.64
2022-11-05T22:16:49.534Z,57.78
2022-11-05T22:19:16.174Z,57.73
2022-11-05T22:21:42.918Z,57.79
2022-11-05T22:24:09.931Z,57.79
2022-11-05T22:26:38.260Z,58.09
2022-11-05T22:29:05.840Z,57.94
2022-11-05T22:31:36.264Z,57.85
2022-11-05T22:34:04.412Z,57.93
2022-11-05T22:36:31.815Z,57.99
2022-11-05T22:38:58.455Z,58.00
2022-11-05T22:41:25.276Z,57.95
2022-11-05T22:43:51.849Z,58.11
2022-11-05T22:46:21.757Z,58.11
2022-11-05T22:48:48.929Z,58.04
2022-11-05T22:51:31.002Z,58.61
2022-11-05T22:53:58.906Z,58.16
2022-11-05T22:56:28.051Z,58.25
2022-11-05T22:58:55.049Z,58.01
2022-11-05T23:01:23.231Z,58.22
2022-11-05T23:03:51.706Z,58.19
2022-11-05T23:06:45.489Z,58.70
2022-11-05T23:09:37.173Z,58.49
2022-11-05T23:12:05.988Z,58.29
2022-11-05T23:14:32.585Z,58.29
2022-11-05T23:17:17.285Z,58.28
2022-11-05T23:20:02.793Z,58.20
2022-11-05T23:22:49.930Z,58.43
2022-11-05T23:25:21.664Z,58.54
2022-11-05T23:27:50.169Z,58.48
2022-11-05T23:30:22.637Z,58.83
2022-11-05T23:32:50.062Z,58.50
2022-11-05T23:35:17.068Z,58.20
2022-11-05T23:38:02.603Z,58.62
2022-11-05T23:40:30.904Z,58.35
2022-11-05T23:43:16.586Z,58.43
2022-11-05T23:45:59.090Z,58.58
2022-11-05T23:48:34.311Z,58.98
2022-11-05T23:51:06.770Z,58.85
2022-11-05T23:53:34.906Z,58.57
2022-11-05T23:56:04.612Z,58.60
2022-11-05T23:58:32.115Z,58.63
